No se requiere un especial cuidado respecto a la situación meteorológica.   -   No hay avisos

Informes METAR

 

LEZL - Sevilla, Spain
Distancia de la estación: ENE 8km
Actualización: 18/09/2018 15:30
Poco nuboso
Poco nuboso
 Viento de OSO
Viento: OSO 6 km/h
Temperatura: 32°C
índice de calor: 33°C
Rocío: 17°C
Humedad: 41%
Barómetro: 1015 hPa
Nubes: Poco nuboso
Visibilidad: 10 km
Detalles de las nubes: Poco nuboso 1372 m
2018/09/18 13:30 LEZL 181330Z 24003KT 9999 FEW045 32/17 Q1015 NOSIG
LEMO - Morón, Spain
Distancia de la estación: SE 43km
Actualización: 18/09/2018 16:00
Despejado
Despejado
 Viento de O
Viento: O 11 km/h
Temperatura: 32°C
índice de calor: 33°C
Rocío: 17°C
Humedad: 41%
Barómetro: 1015 hPa
Resumen: Despejado
Visibilidad: mayor de 10 km
2018/09/18 14:00 LEMO 181400Z 27006KT 230V340 CAVOK 32/17 Q1015 NOSIG
LEJR - Jeréz, Spain
Distancia de la estación: S 71km
Actualización: 18/09/2018 16:00
Parcialmente nuboso
Parcialmente nuboso
 Viento de O
Viento: O 7 km/h, Racha: 30 km/h
Temperatura: 33°C
índice de calor: 35°C
Rocío: 20°C
Humedad: 46%
Barómetro: 1015 hPa
Nubes: Parcialmente nuboso
Visibilidad: 10 km
Detalles de las nubes: Parcialmente nuboso 1158 m
2018/09/18 14:00 LEJR 181400Z 27004G16KT 9999 SCT038 33/20 Q1015
 
LERT - Rota, Spain
Distancia de la estación: SSO 89km
Actualización: 18/09/2018 15:00
Poco nuboso
Poco nuboso
 Viento de OSO
Viento: OSO 17 km/h
Temperatura: 27°C
índice de calor: 29°C
Rocío: 22°C
Humedad: 74%
Barómetro: 1016 hPa
Nubes: Poco nuboso
Visibilidad: 10 km
Detalles de las nubes: Poco nuboso 457 m
Poco nuboso 914 m
2018/09/18 13:00 LERT 181300Z 25009KT 210V280 9999 FEW015 FEW030TCU 27/22 Q1016 NOSIG
LEMG - Málaga, Spain
Distancia de la estación: ESE 157km
Actualización: 18/09/2018 15:30
Poco nuboso
Poco nuboso
 Viento de SE
Viento: SE 17 km/h
Temperatura: 28°C
índice de calor: 30°C
Rocío: 22°C
Humedad: 70%
Barómetro: 1015 hPa
Nubes: Poco nuboso
Visibilidad: 10 km
Detalles de las nubes: Poco nuboso 762 m
2018/09/18 13:30 LEMG 181330Z 13009KT 080V170 9999 FEW025 28/22 Q1015 NOSIG
LEBA - Córdoba, Spain
Distancia de la estación: ENE 115km
Actualización: 18/09/2018 15:30
Tormenta cercana, Poco nuboso
Tormenta cercana, Poco nuboso
 Viento de O
Viento: O 9 km/h
Temperatura: 32°C
índice de calor: 34°C
Rocío: 19°C
Humedad: 46%
Barómetro: 1015 hPa
Resumen: Nearby Thunderstorm
Nubes: Poco nuboso
Visibilidad: 10 km
Detalles de las nubes: Poco nuboso 1219 m
2018/09/18 13:30 LEBA 181330Z 27005KT 190V350 9999 VCTS FEW040CB 32/19 Q1015
 
LEGR - Granada, Spain
Distancia de la estación: E 198km
Actualización: 18/09/2018 15:30
Poco nuboso
Poco nuboso
 Viento de OSO
Viento: OSO 7 km/h
Temperatura: 30°C
Rocío: 13°C
Humedad: 35%
Barómetro: 1017 hPa
Nubes: Poco nuboso
Visibilidad: 10 km
Detalles de las nubes: Poco nuboso 1219 m
2018/09/18 13:30 LEGR 181330Z 25004KT 190V320 9999 FEW040TCU 30/13 Q1017
LEAM - Almería, Spain
Distancia de la estación: E 326km
Actualización: 18/09/2018 15:30
Poco nuboso
Poco nuboso
 Viento de SSO
Viento: SSO 19 km/h
Temperatura: 27°C
índice de calor: 30°C
Rocío: 23°C
Humedad: 79%
Barómetro: 1015 hPa
Nubes: Poco nuboso
Visibilidad: 10 km
Detalles de las nubes: Poco nuboso 457 m
Poco nuboso 1067 m
2018/09/18 13:30 LEAM 181330Z 21010KT 180V250 9999 FEW015 FEW035CB 27/23 Q1015
LEMD - Madrid/Barajas, Spain
Distancia de la estación: NNE 402km
Actualización: 18/09/2018 15:30
Poco nuboso
Poco nuboso
 Viento de SSE
Viento: SSE 7 km/h
Temperatura: 28°C
índice de calor: 28°C
Rocío: 14°C
Humedad: 42%
Barómetro: 1017 hPa
Nubes: Poco nuboso
Visibilidad: 10 km
Detalles de las nubes: Poco nuboso 1524 m
2018/09/18 13:30 LEMD 181330Z 15004KT 090V220 9999 FEW050 28/14 Q1017 NOSIG
 
LEVD - Valladolid, Spain
Distancia de la estación: N 492km
Actualización: 18/09/2018 15:30
Poco nuboso
Poco nuboso
 Viento de OSO
Viento: OSO 17 km/h, Racha: 37 km/h
Temperatura: 27°C
Rocío: 10°C
Humedad: 34%
Barómetro: 1018 hPa
Nubes: Poco nuboso
Visibilidad: 10 km
Detalles de las nubes: Poco nuboso 1524 m
2018/09/18 13:30 LEVD 181330Z 24009G20KT 160V300 9999 FEW050TCU 27/10 Q1018
LEBL - Barcelona, Spain
Distancia de la estación: NE 816km
Actualización: 18/09/2018 15:30
Poco nuboso
Poco nuboso
 Viento de E
Viento: E 15 km/h
Temperatura: 24°C
Rocío: 21°C
Humedad: 83%
Barómetro: 1017 hPa
Nubes: Poco nuboso
Visibilidad: 10 km
Detalles de las nubes: Muy nuboso 396 m
Poco nuboso 762 m
2018/09/18 13:30 LEBL 181330Z 10008KT 9999 BKN013 FEW025CB 24/21 Q1017 NOSIG
LEVC - Valencia, Spain
Distancia de la estación: ENE 535km
Actualización: 18/09/2018 15:30
Poco nuboso
Poco nuboso
 Viento de SE
Viento: SE 11 km/h
Temperatura: 27°C
índice de calor: 29°C
Rocío: 20°C
Humedad: 66%
Barómetro: 1015 hPa
Nubes: Poco nuboso
Visibilidad: 10 km
Detalles de las nubes: Poco nuboso 610 m
Poco nuboso 762 m
2018/09/18 13:30 LEVC 181330Z 13006KT 100V230 9999 FEW020 FEW025TCU 27/20 Q1015 NOSIG